Time;durP1;ratioP1;P1;durP2;ratioP2;P2;SDS_P1;SDS_P2;PMS_P1;PMS_P2;Temp;Humidity;BMP_temperature;BMP_pressure;BME280_temperature;BME280_humidity;BME280_pressure;Samples;Min_cycle;Max_cycle;Signal;HPM_P1;HPM_P2
2023/03/01 00:01:55;;;;;;;;;75.00;58.50;;;;;5.94;56.41;100224.78;5031463;28;8854;-79
2023/03/01 00:04:25;;;;;;;;;26.50;11.50;;;;;5.93;57.02;100226.53;4987428;28;8945;-79
2023/03/01 00:06:54;;;;;;;;;70.25;54.50;;;;;5.95;56.89;100223.94;4971047;28;8873;-79
2023/03/01 00:09:23;;;;;;;;;65.50;53.00;;;;;5.91;56.12;100220.44;4982868;28;8846;-79
2023/03/01 00:11:51;;;;;;;;;67.00;53.00;;;;;5.92;56.48;100223.91;4986696;28;8902;-78
2023/03/01 00:14:20;;;;;;;;;71.75;54.75;;;;;5.90;56.54;100217.81;5020308;28;8844;-79
2023/03/01 00:16:49;;;;;;;;;72.50;56.25;;;;;5.88;56.38;100217.78;5006409;28;8881;-79
2023/03/01 00:19:21;;;;;;;;;68.75;56.75;;;;;5.93;56.33;100216.09;4988059;28;8846;-78
2023/03/01 00:21:50;;;;;;;;;72.50;56.50;;;;;5.86;56.36;100209.06;5022354;28;8858;-79
2023/03/01 00:24:19;;;;;;;;;73.00;60.00;;;;;5.91;56.25;100214.34;5022700;28;8866;-78
2023/03/01 00:26:48;;;;;;;;;73.00;57.25;;;;;5.86;56.78;100206.47;4940752;28;8884;-79
2023/03/01 00:29:17;;;;;;;;;65.50;53.00;;;;;5.89;57.16;100206.50;5005553;28;8877;-80
2023/03/01 00:31:45;;;;;;;;;72.25;55.25;;;;;5.30;57.35;100206.72;5022245;28;8862;-81
2023/03/01 00:34:14;;;;;;;;;73.50;57.50;;;;;5.20;57.77;100212.69;5005686;28;8854;-79
2023/03/01 00:36:44;;;;;;;;;68.50;53.25;;;;;5.34;58.16;100201.63;5045918;28;8883;-79
2023/03/01 00:39:16;;;;;;;;;74.75;57.00;;;;;5.42;57.89;100201.69;5030077;28;8871;-78
2023/03/01 00:41:44;;;;;;;;;69.50;56.25;;;;;5.50;57.27;100204.38;5045301;28;8937;-79
2023/03/01 00:44:13;;;;;;;;;68.75;55.00;;;;;5.59;57.30;100204.47;5063199;28;8857;-79
2023/03/01 00:46:42;;;;;;;;;64.00;52.00;;;;;5.65;57.01;100204.53;5043322;28;8864;-78
2023/03/01 00:49:11;;;;;;;;;66.00;54.00;;;;;5.73;56.88;100196.78;5026677;28;8874;-80
2023/03/01 00:51:41;;;;;;;;;71.50;57.00;;;;;5.73;56.39;100186.34;5043028;28;8856;-78
2023/03/01 00:54:11;;;;;;;;;75.75;59.00;;;;;5.77;57.09;100182.88;5060048;28;8867;-78
2023/03/01 00:56:40;;;;;;;;;75.75;56.25;;;;;5.72;57.02;100189.81;5028592;28;8859;-80
2023/03/01 00:59:09;;;;;;;;;73.50;55.75;;;;;5.67;56.96;100191.50;5047276;28;8867;-77
2023/03/01 01:01:38;;;;;;;;;71.50;56.75;;;;;5.65;56.65;100183.66;5045653;28;8859;-80
2023/03/01 01:04:08;;;;;;;;;73.75;57.75;;;;;5.68;56.79;100182.81;5046784;28;8855;-79
2023/03/01 01:06:42;;;;;;;;;62.00;47.25;;;;;5.64;56.71;100179.31;5031717;28;8863;-77
2023/03/01 01:09:17;;;;;;;;;68.67;56.33;;;;;5.61;57.34;100179.28;5050133;28;8868;-79
2023/03/01 01:11:49;;;;;;;;;74.00;54.25;;;;;5.61;56.81;100170.59;5067026;28;8998;-79
2023/03/01 01:14:19;;;;;;;;;74.00;58.00;;;;;5.58;57.52;100174.03;5083666;28;8946;-79
2023/03/01 01:16:49;;;;;;;;;78.00;59.00;;;;;5.65;56.96;100172.38;5016594;28;8872;-79
2023/03/01 01:19:18;;;;;;;;;72.50;57.25;;;;;5.70;57.04;100171.53;5061977;28;8858;-79
2023/03/01 01:21:48;;;;;;;;;67.00;54.25;;;;;5.77;57.32;100166.38;5063273;28;8989;-78
2023/03/01 01:24:18;;;;;;;;;70.75;56.50;;;;;5.81;56.97;100160.31;5030063;28;8851;-79
2023/03/01 01:26:47;;;;;;;;;69.00;56.50;;;;;5.84;56.92;100153.38;5072102;28;9691;-79
2023/03/01 01:29:16;;;;;;;;;34.75;26.25;;;;;5.90;56.69;100155.19;5015049;28;9649;-77
2023/03/01 01:31:45;;;;;;;;;72.00;56.00;;;;;5.89;56.97;100151.69;5030341;28;8863;-79
2023/03/01 01:34:16;;;;;;;;;71.00;55.75;;;;;5.95;56.52;100155.22;5077691;28;8863;-79
2023/03/01 01:36:48;;;;;;;;;74.25;58.75;;;;;5.97;56.83;100149.16;5031883;28;8931;-79
2023/03/01 01:39:18;;;;;;;;;70.25;56.50;;;;;5.94;56.11;100146.50;5032714;28;8865;-78
2023/03/01 01:41:48;;;;;;;;;68.50;55.50;;;;;5.80;56.95;100143.78;5024599;28;8921;-79
2023/03/01 01:44:20;;;;;;;;;67.75;54.75;;;;;5.85;56.67;100142.09;5007988;28;8970;-81
2023/03/01 01:46:53;;;;;;;;;67.75;54.50;;;;;5.90;57.16;100129.09;5025249;28;8938;-80
2023/03/01 01:49:32;;;;;;;;;68.25;54.50;;;;;6.04;57.00;100127.47;5024038;28;8885;-78
2023/03/01 01:52:08;;;;;;;;;69.00;56.00;;;;;6.01;56.37;100119.59;5028766;28;8872;-82
2023/03/01 01:54:45;;;;;;;;;68.00;55.25;;;;;6.14;56.53;100119.69;5014527;28;8864;-79
2023/03/01 01:57:18;;;;;;;;;75.75;58.50;;;;;6.11;56.50;100117.91;5033857;28;8895;-79
2023/03/01 01:59:53;;;;;;;;;72.00;56.50;;;;;6.17;56.81;100117.09;5017484;28;8881;-78
2023/03/01 02:02:22;;;;;;;;;72.75;57.00;;;;;6.16;56.39;100117.97;5035686;28;8872;-78
2023/03/01 02:05:00;;;;;;;;;72.75;58.00;;;;;6.26;55.86;100123.22;5013104;28;9075;-80
2023/03/01 02:07:31;;;;;;;;;71.50;58.25;;;;;6.23;56.36;100112.78;5012947;28;8978;-79
2023/03/01 02:10:03;;;;;;;;;78.75;60.00;;;;;6.23;55.94;100104.09;5029221;28;8950;-79
2023/03/01 02:12:32;;;;;;;;;13.25;7.50;;;;;6.16;56.25;100104.91;5037986;28;8870;-81
2023/03/01 02:15:01;;;;;;;;;69.75;56.50;;;;;6.16;56.17;100108.38;5049972;28;8959;-79
2023/03/01 02:17:30;;;;;;;;;74.67;57.33;;;;;6.18;56.40;100105.78;5018683;28;8976;-82
2023/03/01 02:20:10;;;;;;;;;74.25;57.00;;;;;6.26;56.71;100102.34;5048770;28;8895;-80
2023/03/01 02:22:39;;;;;;;;;69.50;56.75;;;;;6.18;56.51;100101.44;5009361;28;8862;-80
2023/03/01 02:25:22;;;;;;;;;77.00;59.50;;;;;6.19;56.80;100102.31;5008749;28;9009;-80
2023/03/01 02:27:58;;;;;;;;;69.50;53.25;;;;;6.14;56.78;100091.84;5008379;28;8850;-81
2023/03/01 02:30:29;;;;;;;;;66.00;52.75;;;;;5.92;56.25;100098.66;5027889;28;8860;-79
2023/03/01 02:33:02;;;;;;;;;65.75;55.00;;;;;5.95;56.51;100096.06;5022897;28;8862;-78
2023/03/01 02:35:35;;;;;;;;;72.50;55.25;;;;;5.97;56.55;100085.66;5008276;28;8862;-77
2023/03/01 02:38:07;;;;;;;;;68.50;56.00;;;;;6.01;56.50;100087.41;5019359;28;10170;-78
2023/03/01 02:40:40;;;;;;;;;69.75;55.75;;;;;6.08;56.46;100089.22;5027341;28;8859;-78
2023/03/01 02:43:13;;;;;;;;;66.50;53.50;;;;;6.02;55.92;100083.94;5023071;28;8895;-79
2023/03/01 02:45:49;;;;;;;;;62.00;51.00;;;;;6.12;56.86;100088.34;5011329;28;8957;-80
2023/03/01 02:48:18;;;;;;;;;67.50;55.25;;;;;6.00;56.04;100077.81;5003714;28;8872;-80
2023/03/01 02:51:06;;;;;;;;;66.50;53.50;;;;;6.17;55.65;100084.03;4987994;28;8849;-79
2023/03/01 02:53:46;;;;;;;;;69.75;54.00;;;;;6.12;56.07;100088.34;4967565;28;8885;-79
2023/03/01 02:56:16;;;;;;;;;63.75;50.25;;;;;6.00;56.25;100080.44;5007616;28;9635;-80
2023/03/01 02:58:50;;;;;;;;;63.50;51.75;;;;;5.99;56.44;100076.09;5007373;28;8919;-79
2023/03/01 03:01:22;;;;;;;;;63.50;50.75;;;;;6.03;56.60;100076.13;5036204;28;8886;-79
2023/03/01 03:03:51;;;;;;;;;69.00;55.75;;;;;6.05;56.08;100070.91;5026833;28;8867;-79
2023/03/01 03:06:21;;;;;;;;;67.50;56.00;;;;;6.06;56.25;100078.75;5043434;28;8913;-78
2023/03/01 03:08:50;;;;;;;;;69.00;54.50;;;;;6.09;56.33;100073.53;5010405;28;8970;-77
2023/03/01 03:11:19;;;;;;;;;68.75;52.25;;;;;6.09;56.51;100076.16;5033443;28;8861;-79
2023/03/01 03:13:48;;;;;;;;;66.50;52.75;;;;;6.09;56.19;100064.84;4974290;28;8842;-80
2023/03/01 03:16:18;;;;;;;;;68.25;52.50;;;;;6.08;56.14;100065.72;5023203;28;8873;-79
2023/03/01 03:18:49;;;;;;;;;70.75;56.25;;;;;6.14;56.32;100055.31;5032671;28;8868;-80
2023/03/01 03:21:18;;;;;;;;;70.25;53.50;;;;;6.18;55.74;100064.03;5081135;28;8911;-79
2023/03/01 03:23:46;;;;;;;;;70.00;55.50;;;;;6.22;55.76;100056.22;5048737;28;8868;-80
2023/03/01 03:26:15;;;;;;;;;66.25;55.00;;;;;6.18;55.46;100045.75;5065044;28;8876;-79
2023/03/01 03:28:44;;;;;;;;;72.75;56.50;;;;;6.18;56.02;100045.75;5047888;28;8965;-80
2023/03/01 03:31:13;;;;;;;;;69.50;54.75;;;;;6.26;55.90;100046.66;5063979;28;8854;-78
2023/03/01 03:33:42;;;;;;;;;73.50;56.50;;;;;6.32;55.71;100046.66;5048837;28;8896;-80
2023/03/01 03:36:17;;;;;;;;;66.00;53.25;;;;;6.36;55.64;100044.94;5005948;28;9644;-79
2023/03/01 03:38:46;;;;;;;;;71.75;55.50;;;;;6.27;55.05;100049.28;4973909;28;8860;-77
2023/03/01 03:41:16;;;;;;;;;66.75;52.25;;;;;6.26;55.74;100054.47;4974305;28;8859;-78
2023/03/01 03:43:45;;;;;;;;;63.50;51.50;;;;;6.30;55.50;100053.63;5006046;28;8871;-79
2023/03/01 03:46:14;;;;;;;;;67.50;53.00;;;;;6.31;55.50;100050.16;4971315;28;9599;-78
2023/03/01 03:48:44;;;;;;;;;62.00;51.50;;;;;6.32;55.63;100046.66;4954250;28;8970;-78
2023/03/01 03:51:17;;;;;;;;;66.25;52.75;;;;;6.38;55.59;100053.66;4923514;28;8875;-78
2023/03/01 03:53:46;;;;;;;;;68.25;52.50;;;;;6.21;55.68;100050.97;4999194;28;8967;-79
2023/03/01 03:56:15;;;;;;;;;66.75;55.50;;;;;6.23;55.89;100059.72;4990655;28;8872;-80
2023/03/01 03:58:44;;;;;;;;;64.50;49.50;;;;;6.15;55.88;100058.78;5007828;28;8879;-80
2023/03/01 04:01:12;;;;;;;;;58.75;48.00;;;;;6.18;55.77;100054.44;4974349;28;8837;-80
2023/03/01 04:03:46;;;;;;;;;69.25;53.75;;;;;6.20;56.09;100050.09;4947341;28;8873;-79
2023/03/01 04:06:17;;;;;;;;;71.00;55.00;;;;;6.30;55.67;100049.31;5004102;28;8852;-80
2023/03/01 04:08:45;;;;;;;;;61.75;49.75;;;;;6.28;55.72;100051.00;4992174;28;8859;-82
2023/03/01 04:11:29;;;;;;;;;64.25;49.50;;;;;6.36;55.65;100047.56;4990880;28;8856;-79
2023/03/01 04:13:59;;;;;;;;;63.00;52.75;;;;;6.38;55.38;100046.72;4960121;28;8847;-81
2023/03/01 04:16:29;;;;;;;;;61.50;50.75;;;;;6.41;55.59;100045.84;5031857;28;8867;-79
2023/03/01 04:18:59;;;;;;;;;62.25;50.25;;;;;6.44;55.88;100054.56;5048463;28;8926;-80
2023/03/01 04:21:29;;;;;;;;;63.50;51.00;;;;;6.43;55.47;100052.81;5047304;28;8884;-79
2023/03/01 04:23:58;;;;;;;;;64.00;52.50;;;;;6.45;55.10;100053.69;5013007;28;8870;-80
2023/03/01 04:26:27;;;;;;;;;65.25;52.75;;;;;6.44;56.05;100053.72;5047993;28;8879;-76
2023/03/01 04:28:57;;;;;;;;;65.00;52.25;;;;;6.48;55.74;100052.84;5048093;28;9005;-78
2023/03/01 04:31:25;;;;;;;;;62.75;50.50;;;;;6.51;55.43;100053.75;5046822;28;8934;-77
2023/03/01 04:33:56;;;;;;;;;64.25;52.25;;;;;6.52;55.73;100050.25;5079654;28;8844;-77
2023/03/01 04:36:27;;;;;;;;;63.75;51.00;;;;;6.52;55.07;100050.25;5048005;28;8833;-76
2023/03/01 04:38:58;;;;;;;;;63.50;51.25;;;;;6.56;55.63;100039.81;5048465;28;8865;-78
2023/03/01 04:41:27;;;;;;;;;64.25;51.00;;;;;6.50;55.17;100048.50;5046731;28;9634;-79
2023/03/01 04:43:56;;;;;;;;;64.50;52.50;;;;;6.49;54.78;100050.25;5063636;28;8861;-78
2023/03/01 04:46:25;;;;;;;;;61.75;49.75;;;;;6.50;54.60;100053.72;5046444;28;8853;-79
2023/03/01 04:48:54;;;;;;;;;74.25;58.00;;;;;6.51;55.20;100048.53;5059432;28;8855;-79
2023/03/01 04:51:23;;;;;;;;;99.00;84.50;;;;;6.57;55.26;100054.59;5043319;28;8851;-80
2023/03/01 04:53:51;;;;;;;;;81.00;61.75;;;;;6.49;55.11;100054.59;5029111;28;10166;-79
2023/03/01 04:56:22;;;;;;;;;68.50;55.50;;;;;6.50;55.18;100048.50;5012918;28;8930;-79
2023/03/01 04:58:54;;;;;;;;;69.25;53.00;;;;;6.54;54.66;100046.78;4996744;28;8958;-77
2023/03/01 05:01:23;;;;;;;;;66.25;49.25;;;;;6.50;55.36;100049.38;5030197;28;9000;-79
2023/03/01 05:03:52;;;;;;;;;58.25;46.00;;;;;6.51;54.81;100051.13;5046355;28;8852;-76
2023/03/01 05:06:21;;;;;;;;;59.50;50.25;;;;;6.52;54.68;100047.63;5013218;28;8872;-78
2023/03/01 05:08:50;;;;;;;;;58.00;47.75;;;;;6.55;54.33;100049.41;5046490;28;8852;-80
2023/03/01 05:11:21;;;;;;;;;43.75;39.25;;;;;6.46;55.20;100058.06;5046326;28;8867;-80
2023/03/01 05:13:54;;;;;;;;;53.75;45.50;;;;;6.40;55.21;100063.28;4989107;28;8877;-80
2023/03/01 05:16:23;;;;;;;;;91.25;71.25;;;;;6.34;55.05;100059.75;5005194;28;8850;-78
2023/03/01 05:18:52;;;;;;;;;52.75;45.75;;;;;6.35;55.41;100056.28;5020878;28;8995;-79
2023/03/01 05:21:22;;;;;;;;;49.25;41.75;;;;;6.32;55.82;100062.34;5021790;28;8858;-79
2023/03/01 05:23:51;;;;;;;;;57.00;45.25;;;;;6.35;54.97;100061.50;5000727;28;8865;-79
2023/03/01 05:26:27;;;;;;;;;50.75;44.25;;;;;6.37;54.99;100063.25;4982669;28;8867;-79
2023/03/01 05:28:58;;;;;;;;;56.25;43.75;;;;;6.42;54.82;100055.44;4966319;28;8993;-79
2023/03/01 05:31:28;;;;;;;;;60.25;48.75;;;;;6.17;54.95;100060.56;4967053;28;8912;-82
2023/03/01 05:33:57;;;;;;;;;56.00;44.50;;;;;6.11;55.32;100058.78;4981916;28;8891;-79
2023/03/01 05:36:26;;;;;;;;;53.50;43.25;;;;;6.01;55.38;100064.78;4930877;29;8984;-80
2023/03/01 05:38:55;;;;;;;;;54.75;45.25;;;;;5.81;56.05;100058.56;4930249;29;9758;-78
2023/03/01 05:41:26;;;;;;;;;58.00;46.50;;;;;5.65;56.81;100057.59;4896563;29;8973;-79
2023/03/01 05:43:54;;;;;;;;;59.75;49.75;;;;;5.57;56.88;100057.56;4898855;29;8890;-80
2023/03/01 05:46:24;;;;;;;;;52.75;45.75;;;;;5.63;56.77;100067.16;4931804;29;9225;-81
2023/03/01 05:48:53;;;;;;;;;62.50;49.75;;;;;5.57;57.28;100067.09;4931399;29;9035;-80
2023/03/01 05:51:22;;;;;;;;;51.25;44.00;;;;;5.61;57.12;100061.91;4934189;28;8862;-80
2023/03/01 05:53:51;;;;;;;;;60.25;47.25;;;;;5.68;57.38;100061.09;4951062;28;8871;-80
2023/03/01 05:56:22;;;;;;;;;62.00;50.50;;;;;5.59;56.98;100061.03;4951039;28;8874;-78
2023/03/01 05:58:52;;;;;;;;;54.75;45.75;;;;;5.51;57.41;100058.38;4950844;28;8973;-79
2023/03/01 06:01:20;;;;;;;;;60.00;49.75;;;;;5.45;58.14;100065.25;4934645;28;8945;-78
2023/03/01 06:03:49;;;;;;;;;62.00;49.50;;;;;5.50;57.60;100061.81;4975921;28;8885;-79
2023/03/01 06:06:19;;;;;;;;;59.75;47.25;;;;;5.44;58.09;100064.38;5000430;28;8846;-78
2023/03/01 06:08:47;;;;;;;;;69.25;52.75;;;;;5.45;57.73;100054.81;5056399;28;8888;-77
2023/03/01 06:11:17;;;;;;;;;61.75;49.50;;;;;5.46;57.66;100053.97;5056549;28;8938;-80
2023/03/01 06:13:46;;;;;;;;;63.00;52.25;;;;;5.26;58.05;100056.38;5084265;28;8879;-77
2023/03/01 06:16:16;;;;;;;;;53.50;45.25;;;;;5.22;58.57;100062.41;5050130;28;8837;-79
2023/03/01 06:18:45;;;;;;;;;63.50;50.25;;;;;5.43;57.92;100062.63;5066453;28;8881;-80
2023/03/01 06:21:14;;;;;;;;;61.25;50.00;;;;;5.54;57.92;100053.16;5066762;28;8891;-78
2023/03/01 06:23:43;;;;;;;;;65.50;52.00;;;;;5.62;57.63;100053.22;5051263;28;8864;-79
2023/03/01 06:26:12;;;;;;;;;62.25;47.00;;;;;5.61;57.94;100058.44;5064394;28;8842;-81
2023/03/01 06:28:41;;;;;;;;;57.25;47.50;;;;;5.59;57.72;100049.75;5063533;28;8875;-79
2023/03/01 06:31:10;;;;;;;;;61.75;49.75;;;;;5.67;57.83;100055.88;5017250;28;8853;-80
2023/03/01 06:33:40;;;;;;;;;58.50;47.00;;;;;5.69;57.45;100048.94;5049482;28;9004;-79
2023/03/01 06:36:10;;;;;;;;;51.75;43.25;;;;;5.57;57.72;100051.44;5032364;28;8950;-81
2023/03/01 06:38:40;;;;;;;;;55.25;46.25;;;;;5.68;57.44;100053.28;5065627;28;9625;-78
2023/03/01 06:41:09;;;;;;;;;53.25;43.75;;;;;5.81;57.59;100051.66;5013925;28;8852;-81
2023/03/01 06:43:38;;;;;;;;;55.75;45.00;;;;;5.90;57.29;100053.41;5049580;28;8868;-79
2023/03/01 06:46:07;;;;;;;;;50.25;43.75;;;;;6.04;57.09;100053.50;5065127;28;8873;-81
2023/03/01 06:48:36;;;;;;;;;51.25;42.25;;;;;5.94;57.18;100049.97;5049117;28;8861;-80
2023/03/01 06:51:06;;;;;;;;;56.50;46.00;;;;;5.96;57.36;100057.81;5060411;28;8868;-80
2023/03/01 06:53:35;;;;;;;;;52.75;45.00;;;;;6.11;56.70;100048.34;5051168;28;8864;-78
2023/03/01 06:56:05;;;;;;;;;51.75;44.50;;;;;6.01;56.99;100056.97;5054815;28;8848;-78
2023/03/01 06:58:34;;;;;;;;;45.75;42.00;;;;;5.99;57.24;100057.84;5043660;28;8859;-79
2023/03/01 07:01:26;;;;;;;;;53.00;43.75;;;;;5.87;57.25;100054.28;5067055;28;8842;-79
2023/03/01 07:03:55;;;;;;;;;57.00;46.75;;;;;5.87;56.73;100048.19;4976385;28;8952;-80
2023/03/01 07:06:26;;;;;;;;;66.00;49.75;;;;;5.92;56.85;100051.69;5004753;28;8905;-77
2023/03/01 07:08:55;;;;;;;;;59.25;47.25;;;;;5.79;57.24;100058.56;4991065;28;8897;-78
2023/03/01 07:11:24;;;;;;;;;39.25;34.50;;;;;6.00;56.82;100052.63;4972854;28;8900;-79
2023/03/01 07:13:52;;;;;;;;;60.25;47.25;;;;;6.14;57.06;100038.78;4991530;28;8960;-79
2023/03/01 07:16:21;;;;;;;;;57.75;46.25;;;;;6.22;56.47;100045.75;5011404;28;9073;-80
2023/03/01 07:18:50;;;;;;;;;59.25;45.75;;;;;5.99;56.90;100050.88;4974905;28;9588;-78
2023/03/01 07:21:19;;;;;;;;;56.50;47.75;;;;;6.17;56.32;100044.00;4995591;28;8939;-78
2023/03/01 07:23:50;;;;;;;;;61.00;48.75;;;;;6.40;56.56;100051.94;5042692;28;8873;-79
2023/03/01 07:26:18;;;;;;;;;53.50;44.75;;;;;6.32;55.77;100054.50;5048322;28;8856;-80
2023/03/01 07:28:47;;;;;;;;;63.75;50.25;;;;;6.35;55.76;100056.28;5048614;28;8911;-79
2023/03/01 07:31:16;;;;;;;;;60.50;47.25;;;;;6.47;56.09;100056.31;5052158;28;8865;-79
2023/03/01 07:33:45;;;;;;;;;58.00;49.25;;;;;6.32;56.02;100052.78;5003650;28;8865;-81
2023/03/01 07:36:14;;;;;;;;;60.50;48.25;;;;;6.49;55.13;100051.97;5051737;28;8845;-79
2023/03/01 07:38:43;;;;;;;;;62.00;49.75;;;;;6.33;55.91;100058.88;5033000;28;8984;-78
2023/03/01 07:41:14;;;;;;;;;56.50;46.75;;;;;6.35;55.89;100056.28;5049919;28;8965;-78
2023/03/01 07:43:43;;;;;;;;;57.50;47.00;;;;;6.60;55.13;100065.06;5050850;28;9005;-79
2023/03/01 07:46:12;;;;;;;;;59.75;48.75;;;;;6.63;55.70;100065.09;5049724;28;8864;-79
2023/03/01 07:48:40;;;;;;;;;55.50;46.25;;;;;6.94;55.06;100063.47;5032291;28;8845;-77
2023/03/01 07:51:11;;;;;;;;;58.50;50.00;;;;;6.89;55.12;100055.63;5050571;28;8849;-78
2023/03/01 07:53:40;;;;;;;;;38.50;37.25;;;;;6.45;54.47;100056.31;5051121;28;8885;-79
2023/03/01 07:56:12;;;;;;;;;42.00;38.25;;;;;6.48;54.81;100056.31;5061741;28;8855;-82
2023/03/01 07:58:43;;;;;;;;;43.25;39.75;;;;;6.41;55.00;100058.91;5027308;28;8879;-80
2023/03/01 08:01:15;;;;;;;;;46.00;39.00;;;;;6.39;54.82;100058.03;5048461;28;8880;-79
2023/03/01 08:03:44;;;;;;;;;41.50;38.00;;;;;6.31;55.09;100045.81;5048873;28;8888;-79
2023/03/01 08:06:17;;;;;;;;;37.50;34.75;;;;;6.36;55.45;100042.34;5044359;28;8855;-78
2023/03/01 08:08:46;;;;;;;;;35.25;33.50;;;;;6.49;54.96;100041.53;5063456;28;8933;-79
2023/03/01 08:11:16;;;;;;;;;36.60;34.00;;;;;6.41;55.44;100032.78;5042593;28;8849;-80
2023/03/01 08:13:49;;;;;;;;;33.00;32.20;;;;;6.31;55.69;100037.13;5077472;28;8856;-78
2023/03/01 08:16:21;;;;;;;;;35.40;31.40;;;;;6.67;55.38;100031.16;5082299;28;9438;-80
2023/03/01 08:18:50;;;;;;;;;26.80;23.20;;;;;6.52;55.11;100041.53;5047697;28;8856;-80
2023/03/01 08:21:19;;;;;;;;;36.20;33.40;;;;;6.82;55.21;100048.59;5014505;28;8880;-80
2023/03/01 08:23:48;;;;;;;;;32.80;28.80;;;;;6.86;54.12;100036.41;5030473;28;8887;-80
2023/03/01 08:26:19;;;;;;;;;36.40;30.60;;;;;7.08;53.78;100027.78;5046410;28;8863;-78
2023/03/01 08:28:50;;;;;;;;;32.60;30.80;;;;;7.11;53.61;100020.81;5045978;28;8860;-78
2023/03/01 08:31:23;;;;;;;;;40.00;34.80;;;;;7.11;53.39;100007.72;5028272;28;8855;-78
2023/03/01 08:33:55;;;;;;;;;35.80;30.00;;;;;6.88;53.98;100006.78;5029655;28;8955;-78
2023/03/01 08:36:26;;;;;;;;;32.80;29.40;;;;;6.50;55.16;100009.34;5029510;28;9624;-81
2023/03/01 08:38:56;;;;;;;;;27.80;26.20;;;;;6.99;54.93;100006.00;5025601;28;9720;-79
2023/03/01 08:41:26;;;;;;;;;26.40;24.60;;;;;6.84;53.79;100009.41;5029541;28;9582;-79
2023/03/01 08:43:59;;;;;;;;;22.20;20.00;;;;;7.06;53.73;99999.88;5029294;28;8836;-82
2023/03/01 08:46:29;;;;;;;;;23.20;20.20;;;;;7.29;53.26;100008.59;5027819;28;8825;-80
2023/03/01 08:48:59;;;;;;;;;16.60;15.60;;;;;6.88;53.61;100005.94;5023727;28;8872;-79
2023/03/01 08:51:29;;;;;;;;;14.40;13.40;;;;;6.86;53.10;100012.91;5028317;28;8855;-83
2023/03/01 08:53:57;;;;;;;;;16.00;15.60;;;;;6.94;54.54;100011.19;5047008;28;8899;-80
2023/03/01 08:56:26;;;;;;;;;18.60;15.00;;;;;7.06;53.30;100010.31;5060480;28;9970;-84
2023/03/01 08:58:56;;;;;;;;;16.00;12.40;;;;;6.75;53.39;100005.03;5047923;28;8951;-82
2023/03/01 09:01:26;;;;;;;;;17.40;14.40;;;;;7.13;53.74;100004.25;5048011;28;8873;-81
2023/03/01 09:03:54;;;;;;;;;10.60;7.20;;;;;7.11;52.94;100005.13;5044693;28;9136;-84
2023/03/01 09:06:24;;;;;;;;;16.80;13.80;;;;;7.09;52.67;100011.22;5044308;28;8929;-80
2023/03/01 09:08:54;;;;;;;;;15.80;13.60;;;;;6.92;53.08;100007.72;5048103;28;8857;-81
2023/03/01 09:11:23;;;;;;;;;14.00;13.80;;;;;7.19;52.49;100009.50;5049480;28;8920;-82
2023/03/01 09:13:52;;;;;;;;;12.80;12.80;;;;;7.07;52.03;99992.03;4974193;28;8858;-81
2023/03/01 09:16:24;;;;;;;;;12.00;12.00;;;;;7.16;51.93;99993.78;5022988;28;8959;-82
2023/03/01 09:18:54;;;;;;;;;12.40;10.60;;;;;7.42;53.03;100011.19;5026781;28;8898;-81
2023/03/01 09:21:24;;;;;;;;;14.40;11.80;;;;;7.64;51.74;100001.59;5010366;28;8870;-80
2023/03/01 09:24:12;;;;;;;;;9.20;9.20;;;;;7.58;51.43;99994.63;5021485;28;8898;-79
2023/03/01 09:26:42;;;;;;;;;12.60;12.00;;;;;7.46;51.55;100006.00;5026315;28;8868;-80
2023/03/01 09:29:11;;;;;;;;;12.60;12.40;;;;;7.45;52.05;100016.44;5010974;28;8878;-80
2023/03/01 09:31:43;;;;;;;;;10.40;10.40;;;;;7.12;52.10;100012.97;4970957;28;8926;-82
2023/03/01 09:34:13;;;;;;;;;14.00;13.60;;;;;7.25;51.99;99998.16;4939235;28;8875;-82
2023/03/01 09:37:02;;;;;;;;;12.40;12.40;;;;;7.43;51.81;99997.28;4974366;28;8879;-83
2023/03/01 09:39:31;;;;;;;;;17.80;16.00;;;;;7.26;52.11;99998.13;4954778;28;9034;-80
2023/03/01 09:42:04;;;;;;;;;21.00;19.80;;;;;7.35;52.22;99985.94;4939517;28;8913;-85
2023/03/01 09:44:40;;;;;;;;;19.80;15.00;;;;;7.40;52.11;99984.19;4977112;28;8882;-84
2023/03/01 09:47:17;;;;;;;;;14.60;14.20;;;;;7.72;51.19;99973.69;4983401;28;8874;-84
2023/03/01 09:49:55;;;;;;;;;20.00;18.80;;;;;7.60;51.40;99978.94;5011625;28;8851;-81
2023/03/01 09:52:34;;;;;;;;;19.00;17.40;;;;;8.08;50.45;99969.22;5012877;28;9012;-82
2023/03/01 09:55:12;;;;;;;;;13.80;12.40;;;;;8.06;50.40;99968.31;4994577;28;9608;-80
2023/03/01 09:57:49;;;;;;;;;16.60;14.20;;;;;8.10;50.12;99969.19;5014382;28;8929;-81
2023/03/01 10:00:30;;;;;;;;;17.00;15.20;;;;;8.05;50.48;99959.59;5009050;28;8870;-80
2023/03/01 10:03:12;;;;;;;;;15.60;15.00;;;;;8.01;50.93;99943.94;5046993;28;8879;-81
2023/03/01 10:05:49;;;;;;;;;12.40;12.20;;;;;8.20;50.89;99948.19;5051229;28;8895;-81
2023/03/01 10:08:31;;;;;;;;;12.60;11.60;;;;;7.98;50.37;99952.66;5048604;28;8937;-81
2023/03/01 10:11:00;;;;;;;;;16.20;16.20;;;;;8.06;50.28;99934.28;5061033;28;8871;-82
2023/03/01 10:13:38;;;;;;;;;17.60;16.80;;;;;8.09;50.54;99944.75;5052340;28;8895;-83
2023/03/01 10:16:14;;;;;;;;;17.00;16.00;;;;;8.38;50.19;99926.31;5042545;28;8940;-82
2023/03/01 10:18:52;;;;;;;;;19.20;16.80;;;;;7.82;50.88;99916.97;5079060;28;8918;-84
2023/03/01 10:21:22;;;;;;;;;15.80;14.00;;;;;8.01;49.83;99913.38;5062099;28;8856;-82
2023/03/01 10:23:54;;;;;;;;;14.00;14.00;;;;;8.01;49.85;99920.38;5054361;28;8886;-81
2023/03/01 10:26:34;;;;;;;;;12.20;12.20;;;;;7.82;49.85;99915.19;5045844;28;8890;-81
2023/03/01 10:29:07;;;;;;;;;12.40;11.60;;;;;7.80;50.62;99910.88;5066551;28;8886;-81
2023/03/01 10:31:45;;;;;;;;;18.00;16.00;;;;;7.72;50.19;99918.75;5034126;28;8951;-82
2023/03/01 10:34:18;;;;;;;;;19.00;16.00;;;;;8.10;50.24;99922.94;5049451;28;8985;-79
2023/03/01 10:36:51;;;;;;;;;18.20;15.60;;;;;8.33;49.60;99912.38;5051418;28;8989;-83
2023/03/01 10:39:22;;;;;;;;;16.20;13.80;;;;;8.05;49.72;99919.47;5000627;28;8850;-83
2023/03/01 10:41:59;;;;;;;;;14.20;13.80;;;;;7.91;49.44;99905.56;5033058;28;9024;-84
2023/03/01 10:44:39;;;;;;;;;15.80;13.60;;;;;7.73;50.32;99909.13;5032369;28;8984;-83
2023/03/01 10:47:20;;;;;;;;;10.60;9.00;;;;;7.82;50.82;99909.97;5050157;28;8861;-87
2023/03/01 10:50:20;;;;;;;;;17.60;13.20;;;;;8.17;49.86;99913.28;5029645;28;9018;-83
2023/03/01 10:53:01;;;;;;;;;11.40;9.20;;;;;8.20;49.63;99900.19;4946560;28;8851;-83
2023/03/01 10:55:35;;;;;;;;;11.60;11.60;;;;;8.06;50.33;99908.09;4931660;28;8937;-83
2023/03/01 10:58:10;;;;;;;;;13.40;12.40;;;;;8.27;49.78;99900.16;4952030;28;8954;-83
2023/03/01 11:00:51;;;;;;;;;13.80;13.80;;;;;8.32;49.89;99899.28;4971343;28;8846;-84
2023/03/01 11:03:23;;;;;;;;;14.20;12.80;;;;;8.36;48.76;99891.38;4984058;28;8853;-81
2023/03/01 11:05:58;;;;;;;;;13.80;11.80;;;;;8.35;48.66;99889.66;4975413;28;8853;-83
2023/03/01 11:08:32;;;;;;;;;15.40;13.80;;;;;8.56;48.88;99893.88;4974171;28;8883;-84
2023/03/01 11:11:14;;;;;;;;;15.00;12.40;;;;;8.57;48.61;99890.41;4958643;28;8864;-81
2023/03/01 11:13:55;;;;;;;;;17.40;17.20;;;;;8.61;48.55;99886.88;4975640;28;8887;-85
2023/03/01 11:16:36;;;;;;;;;12.00;11.40;;;;;8.92;47.76;99888.38;4974788;28;8852;-87
2023/03/01 11:19:19;;;;;;;;;14.20;13.20;;;;;8.84;48.41;99878.81;4990886;28;8865;-85
2023/03/01 11:21:59;;;;;;;;;18.40;17.00;;;;;8.94;47.65;99876.13;4974190;28;8984;-83
2023/03/01 11:24:35;;;;;;;;;19.20;16.20;;;;;9.04;47.98;99876.03;4958357;28;8982;-84
2023/03/01 11:27:11;;;;;;;;;15.60;15.00;;;;;8.87;47.81;99870.03;4974025;28;9087;-82
2023/03/01 11:29:46;;;;;;;;;14.20;13.20;;;;;8.56;48.50;99870.31;5003143;28;8883;-83
2023/03/01 11:32:18;;;;;;;;;16.80;15.80;;;;;8.79;48.06;99869.25;5048764;28;8858;-83
2023/03/01 11:34:55;;;;;;;;;14.20;14.20;;;;;8.76;48.88;99864.03;5031702;28;8858;-83
2023/03/01 11:38:00;;;;;;;;;14.80;13.20;;;;;8.70;48.10;99857.06;4996887;28;8886;-84
2023/03/01 11:40:34;;;;;;;;;16.20;15.60;;;;;8.64;48.71;99859.75;4996900;28;8891;-83
2023/03/01 11:43:32;;;;;;;;;13.00;12.60;;;;;8.55;48.47;99849.34;4956985;28;8867;-84
2023/03/01 11:46:30;;;;;;;;;13.60;11.60;;;;;8.44;48.18;99847.69;4974359;28;8867;-84
2023/03/01 11:49:12;;;;;;;;;16.80;16.80;;;;;8.35;48.70;99833.78;4976002;28;8889;-81